Naruna, Texas
Current Conditions -  °F | °C
As of 1:53 PM on Saturday 20 Dec 2014 (Local Time) from KBMQ Reporting Station
Overcast Overcast  
Wind Chill: 50°   Ceiling: 1800
Heat Index: 50°   Visibility: 10mi
Dew Point: 41°   Wind: 5mph
Humidity: 71%   Direction: 30°NNE
Pressure: 30.19"   Gusts: NA
Location:  31.1064°N, 98.2303°W
Report Text: KBMQ 201953Z AUTO 03004KT 10SM OVC018 10/05 A3019 RMK AO2 SLP219 T01000050
Loading
Personal Weather Stations






























Interactive Weather Map New forecast layout! Learn more

10-Day Weather Forecast

Advertisements
Track Severe Weather on mobile